createdAt,value
2023-02-02T00:01:55.584Z,1.12
2023-02-02T00:05:00.696Z,1.11
2023-02-02T00:08:03.181Z,1.12
2023-02-02T00:11:07.030Z,1.11
2023-02-02T00:14:09.822Z,1.07
2023-02-02T00:17:14.360Z,1.04
2023-02-02T00:20:17.160Z,1.00
2023-02-02T00:23:19.466Z,0.99
2023-02-02T00:26:21.809Z,0.98
2023-02-02T00:29:31.687Z,1.00
2023-02-02T00:32:35.888Z,1.04
2023-02-02T00:35:40.565Z,1.05
2023-02-02T00:38:44.142Z,1.05
2023-02-02T00:41:50.028Z,1.07
2023-02-02T00:45:12.566Z,1.08
2023-02-02T00:48:14.975Z,1.08
2023-02-02T00:51:19.596Z,1.04
2023-02-02T00:54:22.777Z,1.03
2023-02-02T00:57:24.694Z,1.02
2023-02-02T01:00:27.257Z,1.00
2023-02-02T01:03:29.868Z,0.99
2023-02-02T01:06:31.930Z,1.00
2023-02-02T01:09:35.580Z,1.01
2023-02-02T01:12:40.684Z,1.01
2023-02-02T01:15:42.682Z,0.99
2023-02-02T01:18:46.812Z,0.97
2023-02-02T01:21:50.092Z,0.96
2023-02-02T01:24:56.163Z,0.97
2023-02-02T01:27:59.239Z,0.97
2023-02-02T01:31:13.848Z,0.96
2023-02-02T01:34:16.282Z,0.94
2023-02-02T01:37:23.113Z,0.94
2023-02-02T01:40:26.657Z,0.92
2023-02-02T01:43:49.823Z,0.92
2023-02-02T01:46:52.409Z,0.94
2023-02-02T01:49:55.683Z,0.94
2023-02-02T01:53:01.764Z,0.94
2023-02-02T01:56:08.170Z,0.94
2023-02-02T01:59:15.222Z,0.95
2023-02-02T02:02:17.956Z,0.96
2023-02-02T02:05:27.899Z,0.96
2023-02-02T02:08:53.888Z,0.96
2023-02-02T02:11:56.690Z,0.99
2023-02-02T02:15:19.266Z,1.01
2023-02-02T02:18:40.803Z,1.05
2023-02-02T02:22:08.919Z,1.06
2023-02-02T02:26:02.134Z,1.05
2023-02-02T02:29:32.104Z,1.05
2023-02-02T02:32:37.757Z,1.05
2023-02-02T02:35:47.869Z,1.01
2023-02-02T02:39:06.342Z,0.97
2023-02-02T02:42:16.225Z,0.93
2023-02-02T02:45:21.440Z,0.93
2023-02-02T02:48:25.826Z,0.93
2023-02-02T02:51:48.310Z,0.92
2023-02-02T02:55:00.272Z,0.92
2023-02-02T02:58:39.779Z,0.94
2023-02-02T03:02:16.437Z,0.95
2023-02-02T03:05:54.868Z,0.93
2023-02-02T03:09:08.273Z,0.90
2023-02-02T03:12:12.899Z,0.91
2023-02-02T03:15:16.397Z,0.93
2023-02-02T03:18:22.446Z,0.95
2023-02-02T03:21:27.133Z,0.96
2023-02-02T03:24:29.986Z,0.95
2023-02-02T03:27:34.195Z,0.94
2023-02-02T03:30:37.890Z,0.92
2023-02-02T03:33:42.797Z,0.91
2023-02-02T03:36:49.250Z,0.92
2023-02-02T03:39:51.966Z,0.96
2023-02-02T03:42:58.238Z,0.99
2023-02-02T07:26:56.361Z,0.68
2023-02-02T07:30:03.935Z,0.75
2023-02-02T07:33:06.961Z,0.82
2023-02-02T07:36:10.381Z,0.91
2023-02-02T07:39:13.130Z,1.00
2023-02-02T07:42:15.158Z,1.11
2023-02-02T07:45:27.040Z,1.19
2023-02-02T07:48:30.684Z,1.28
2023-02-02T07:51:33.977Z,1.39
2023-02-02T07:54:36.752Z,1.47
2023-02-02T07:57:39.514Z,1.55
2023-02-02T08:00:42.658Z,1.64
2023-02-02T08:03:47.099Z,1.75
2023-02-02T08:06:49.195Z,1.87
2023-02-02T08:09:52.044Z,1.91
2023-02-02T08:12:54.395Z,1.97
2023-02-02T08:16:00.710Z,2.00
2023-02-02T08:19:02.632Z,2.04
2023-02-02T08:22:05.073Z,2.13
2023-02-02T08:25:10.382Z,2.25
2023-02-02T08:28:12.843Z,2.32
2023-02-02T08:31:22.427Z,2.38
2023-02-02T08:34:24.585Z,2.48
2023-02-02T08:37:27.912Z,2.52
2023-02-02T08:40:31.127Z,2.47
2023-02-02T08:43:34.573Z,2.40
2023-02-02T08:46:37.050Z,2.32
2023-02-02T08:49:41.960Z,2.27
2023-02-02T08:52:44.194Z,2.26
2023-02-02T08:55:47.867Z,2.34
2023-02-02T08:58:55.199Z,2.38
2023-02-02T09:02:16.294Z,2.37
2023-02-02T09:05:40.734Z,2.30
2023-02-02T09:08:44.577Z,2.24
2023-02-02T09:11:56.248Z,2.21
2023-02-02T09:15:01.850Z,2.24
2023-02-02T09:18:05.655Z,2.26
2023-02-02T09:21:14.877Z,2.23
2023-02-02T09:24:18.893Z,2.19
2023-02-02T09:27:22.219Z,2.23
2023-02-02T09:30:25.375Z,2.36
2023-02-02T09:33:28.781Z,2.42
2023-02-02T09:36:33.124Z,2.37
2023-02-02T09:39:35.291Z,2.36
2023-02-02T09:43:00.893Z,2.39
2023-02-02T09:46:26.145Z,2.43
2023-02-02T09:49:36.966Z,2.37
2023-02-02T09:52:46.047Z,2.30
2023-02-02T09:55:56.487Z,2.23
2023-02-02T09:59:18.780Z,2.13
2023-02-02T10:02:53.007Z,2.07
2023-02-02T10:06:15.370Z,2.16
2023-02-02T10:09:43.147Z,2.32
2023-02-02T10:13:02.581Z,2.39
2023-02-02T10:16:16.794Z,2.42
2023-02-02T10:19:19.980Z,2.50
2023-02-02T10:22:29.066Z,2.58
2023-02-02T10:25:33.737Z,2.57
2023-02-02T10:29:00.412Z,2.62
2023-02-02T10:32:22.447Z,2.76
2023-02-02T10:35:47.191Z,2.96
2023-02-02T10:39:03.296Z,3.11
2023-02-02T10:42:18.036Z,3.18
2023-02-02T10:45:23.927Z,3.32
2023-02-02T10:48:54.207Z,3.44
2023-02-02T10:52:10.745Z,3.49
2023-02-02T10:55:30.766Z,3.52
2023-02-02T10:58:58.370Z,3.67
2023-02-02T11:02:20.316Z,3.77
2023-02-02T11:05:47.681Z,3.75
2023-02-02T11:08:57.681Z,3.73
2023-02-02T11:12:21.388Z,3.77
2023-02-02T11:15:28.750Z,3.82
2023-02-02T11:18:32.878Z,3.85
2023-02-02T11:21:37.949Z,3.80
2023-02-02T11:24:47.298Z,3.77
2023-02-02T11:27:49.555Z,3.66
2023-02-02T11:30:53.373Z,3.66
2023-02-02T11:34:21.199Z,3.66
2023-02-02T11:37:29.648Z,3.67
2023-02-02T11:40:36.490Z,3.68
2023-02-02T11:43:47.189Z,3.64
2023-02-02T11:46:51.357Z,3.55
2023-02-02T11:49:57.450Z,3.46
2023-02-02T14:18:59.630Z,2.06
2023-02-02T14:22:09.733Z,2.11
2023-02-02T14:25:33.345Z,2.14
2023-02-02T14:28:48.732Z,2.18
2023-02-02T14:31:54.065Z,2.19
2023-02-02T14:35:26.135Z,2.19
2023-02-02T14:39:01.094Z,2.18
2023-02-02T14:42:35.781Z,2.16
2023-02-02T14:45:42.377Z,2.06
2023-02-02T14:49:14.507Z,1.93
2023-02-02T14:52:22.893Z,1.82
2023-02-02T14:55:29.297Z,1.75
2023-02-02T14:58:34.435Z,1.67
2023-02-02T15:01:39.335Z,1.62
2023-02-02T15:04:49.345Z,1.59
2023-02-02T15:07:54.323Z,1.54
2023-02-02T15:11:23.075Z,1.49
2023-02-02T15:14:31.620Z,1.41
2023-02-02T15:18:16.607Z,1.33
2023-02-02T15:21:23.420Z,1.27
2023-02-02T15:24:30.197Z,1.24
2023-02-02T15:27:33.292Z,1.21
2023-02-02T15:30:40.622Z,1.19
2023-02-02T15:33:51.119Z,1.22
2023-02-02T15:36:59.435Z,1.28
2023-02-02T15:40:05.088Z,1.30
2023-02-02T15:43:13.167Z,1.34
2023-02-02T15:46:35.276Z,1.33
2023-02-02T15:49:38.637Z,1.29
2023-02-02T15:52:53.053Z,1.26
2023-02-02T15:55:56.936Z,1.20
2023-02-02T15:59:02.579Z,1.17
2023-02-02T16:02:12.121Z,1.11
2023-02-02T16:05:36.472Z,1.08
2023-02-02T16:08:40.601Z,1.12
2023-02-02T16:11:44.934Z,1.13
2023-02-02T16:14:53.810Z,1.09
2023-02-02T16:18:05.060Z,1.01
2023-02-02T16:21:19.219Z,0.94
2023-02-02T16:24:32.719Z,0.91
2023-02-02T16:27:37.667Z,0.84
2023-02-02T16:30:59.635Z,0.80
2023-02-02T16:34:04.109Z,0.76
2023-02-02T16:37:07.413Z,0.72
2023-02-02T16:40:27.342Z,0.70
2023-02-02T16:43:34.391Z,0.69
2023-02-02T16:47:02.546Z,0.69
2023-02-02T16:50:29.244Z,0.73
2023-02-02T16:53:41.017Z,0.76
2023-02-02T16:56:55.683Z,0.77
2023-02-02T17:00:05.773Z,0.76
2023-02-02T17:03:45.933Z,0.76
2023-02-02T17:06:53.557Z,0.79
2023-02-02T17:10:33.774Z,0.78
2023-02-02T17:13:40.718Z,0.79
2023-02-02T17:17:16.456Z,0.80
2023-02-02T17:20:22.552Z,0.81
2023-02-02T17:23:28.241Z,0.84
2023-02-02T17:26:39.005Z,0.85
2023-02-02T17:29:41.243Z,0.84
2023-02-02T17:32:50.575Z,0.83
2023-02-02T17:36:20.534Z,0.83
2023-02-02T17:39:28.215Z,0.86
2023-02-02T17:42:38.268Z,0.91
2023-02-02T17:45:48.756Z,0.95
2023-02-02T17:49:05.762Z,0.99
2023-02-02T17:52:15.886Z,1.06
2023-02-02T17:55:24.784Z,1.09
2023-02-02T17:58:27.426Z,1.11
2023-02-02T18:01:37.645Z,1.11
2023-02-02T18:04:46.882Z,1.13
2023-02-02T18:07:50.597Z,1.12
2023-02-02T18:10:59.488Z,1.12
2023-02-02T18:14:09.026Z,1.13
2023-02-02T18:17:15.751Z,1.14
2023-02-02T18:20:31.345Z,1.12
2023-02-02T18:23:35.103Z,1.08
2023-02-02T18:26:50.119Z,1.05
2023-02-02T18:29:56.641Z,1.07
2023-02-02T18:33:02.513Z,1.08
2023-02-02T18:36:35.852Z,1.06
2023-02-02T18:39:49.393Z,1.06
2023-02-02T18:42:52.519Z,1.06
2023-02-02T18:46:05.181Z,1.08
2023-02-02T18:49:10.743Z,1.06
2023-02-02T18:52:15.187Z,1.02
2023-02-02T18:55:19.293Z,0.99
2023-02-02T18:58:22.381Z,0.98
2023-02-02T19:01:25.857Z,0.98
2023-02-02T19:04:27.907Z,1.03
2023-02-02T19:07:54.383Z,1.08
2023-02-02T19:11:01.737Z,1.11
2023-02-02T19:14:37.164Z,1.13
2023-02-02T19:17:40.484Z,1.15
2023-02-02T19:20:43.545Z,1.16
2023-02-02T19:23:50.388Z,1.16
2023-02-02T19:26:54.794Z,1.18
2023-02-02T19:30:00.944Z,1.20
2023-02-02T19:33:14.721Z,1.17
2023-02-02T19:36:23.767Z,1.15
2023-02-02T19:39:30.823Z,1.08
2023-02-02T19:42:40.260Z,1.03
2023-02-02T19:45:45.809Z,1.03
2023-02-02T19:49:15.713Z,1.06
2023-02-02T19:52:26.738Z,1.05
2023-02-02T19:55:35.477Z,1.03
2023-02-02T22:21:48.610Z,0.64
2023-02-02T22:25:04.625Z,0.68
2023-02-02T22:28:23.743Z,0.74
2023-02-02T22:31:28.049Z,0.84
2023-02-02T22:34:35.562Z,0.95
2023-02-02T22:37:38.027Z,1.04
2023-02-02T22:40:40.369Z,1.11
2023-02-02T22:43:42.826Z,1.16
2023-02-02T22:46:46.106Z,1.21
2023-02-02T22:49:48.571Z,1.28
2023-02-02T22:52:53.939Z,1.35
2023-02-02T22:56:03.545Z,1.38
2023-02-02T22:59:17.287Z,1.41
2023-02-02T23:02:26.806Z,1.43
2023-02-02T23:05:29.801Z,1.44
2023-02-02T23:08:33.963Z,1.43
2023-02-02T23:11:55.520Z,1.42
2023-02-02T23:15:05.924Z,1.45
2023-02-02T23:18:12.683Z,1.47
2023-02-02T23:21:19.680Z,1.50
2023-02-02T23:27:01.902Z,1.63
2023-02-02T23:30:08.623Z,1.65
2023-02-02T23:33:12.225Z,1.62
2023-02-02T23:36:15.643Z,1.58
2023-02-02T23:39:17.905Z,1.52
2023-02-02T23:42:21.573Z,1.49
2023-02-02T23:45:24.717Z,1.47
2023-02-02T23:48:30.433Z,1.45
2023-02-02T23:51:33.153Z,1.44
2023-02-02T23:54:35.714Z,1.42
2023-02-02T23:57:38.271Z,1.41
